Terminal Aerodrome Forecast
Issued by NWS

Home | Current Version | Previous Version | Text Only | Print | Product List | Glossary On
Versions: 1 2 3 4 5 6 7 8 9 10 11 12 13 14 15 16 17 18
000
FTUS46 KEKA 241720
TAFUKI
TAF
KUKI 241720Z 2418/2518 00000KT P6SM SCT250
     FM242200 30008KT P6SM BKN200
     FM250300 32003KT P6SM BKN090=

USA.gov is the U.S. government's official web portal to all federal, state and local government web resources and services.